Latest Coastal Weather Observations for Nullarbor

IDS60701

Issued at 4:05 am CDT Thursday 27 November 2014 (issued every 10 minutes, with the page automatically refreshed every 10 minutes)

About coastal observations | Map of coastal stations | Coastal observations for SA | Marine services | Other Formats
Station Details ID: 018106 Name: NULLARBOR Lat: -31.45 Lon: 130.90 Height: 64.0 m
Data from the previous 72 hours. | See also: Recent months at Nullarbor
Date/Time
CDT
Temp

°C
Wind Pressure Rain
since 9am
mm
Weather Cloud Vis
km
Sea
Height
m
Swell
Dir
 
Speed
knots
Gust
knots
hPa Trend Height
m
Period
s
Dir
27/04:00am 15.3 SE 8 9 1019.4 - 0.0 - - 10 - - - -
27/03:30am 15.9 SE 12 16 1019.3 - 0.0 - Partly cloudy 10 - - - -
27/03:00am 15.6 ESE 10 13 1019.4 - 0.0 - Mostly clear 10 - - - -
27/02:30am 15.8 ESE 12 16 1019.5 - 0.0 - - 10 - - - -
27/02:00am 15.8 ESE 11 15 1019.7 - 0.0 - Partly cloudy 10 - - - -
27/01:30am 15.8 SE 10 15 1020.1 - 0.0 - Partly cloudy 10 - - - -
27/01:00am 15.7 SE 12 16 1020.5 - 0.0 - - 10 - - - -
27/12:30am 15.9 SE 12 15 1020.8 - 0.0 - - 10 - - - -
27/12:00am 15.9 SE 12 15 1021.2 - 0.0 - - 10 - - - -
 
Date/Time
CDT
Temp

°C
Wind Pressure Rain
since 9am
mm
Weather Cloud Vis
km
Sea
Height
m
Swell
Dir
 
Speed
knots
Gust
knots
hPa Trend Height
m
Period
s
Dir
26/11:30pm 15.9 SE 13 16 1021.4 - 0.0 - - 10 - - - -
26/11:00pm 16.2 SE 15 19 1021.5 - 0.0 - - 10 - - - -
26/10:30pm 16.2 SE 13 17 1021.4 - 0.0 - - 10 - - - -
26/10:00pm 16.3 SE 15 19 1021.1 - 0.0 - - 10 - - - -
26/09:30pm 16.6 SE 15 20 1020.9 - 0.0 - - 10 - - - -
26/09:00pm 16.9 SE 16 22 1020.7 - 0.0 - - 10 - - - -
26/08:30pm 17.2 SE 18 23 1020.7 - 0.0 - - 10 - - - -
26/08:00pm 17.9 SE 19 24 1020.4 - 0.0 - - 10 - - - -
26/07:30pm 18.4 SE 19 25 1020.3 - 0.0 - - 10 - - - -
26/07:00pm 19.3 SE 20 28 1020.1 - 0.0 - - 10 - - - -
26/06:30pm 19.4 SE 21 26 1019.9 - 0.0 - - 10 - - - -
26/06:00pm 20.5 SSE 19 24 1020.1 - 0.0 - - 10 - - - -
26/05:30pm 20.7 SE 18 23 1020.3 - 0.0 - - 10 - - - -
26/05:00pm 20.9 SSE 19 24 1020.5 - 0.0 - - 10 - - - -
26/04:30pm 21.0 SSE 18 24 1020.7 - 0.0 - - 10 - - - -
26/04:00pm 21.8 SSE 17 22 1020.9 - 0.0 - - 10 - - - -
26/03:30pm 21.9 SE 17 23 1021.1 - 0.0 - - 10 - - - -
26/03:00pm 22.1 SSE 15 20 1021.3 - 0.0 - - 10 - - - -
26/02:30pm 21.4 SSE 16 21 1021.5 - 0.0 - - 10 - - - -
26/02:00pm 21.9 SE 14 20 1021.7 - 0.0 - - 10 - - - -
26/01:30pm 22.8 SSE 14 20 1022.0 - 0.0 - - 10 - - - -
26/01:00pm 21.2 SSE 14 21 1022.3 - 0.0 - Partly cloudy 10 - - - -
26/12:30pm 21.0 SSE 14 20 1022.5 - 0.0 - Partly cloudy 10 - - - -
26/12:00pm 21.2 SE 13 19 1022.8 - 0.0 - Partly cloudy 10 - - - -
26/11:30am 21.5 SE 13 19 1022.8 - 0.0 - Partly cloudy 10 - - - -
26/11:00am 20.2 SE 12 16 1023.1 - 0.0 - Partly cloudy 10 - - - -
26/10:30am 20.4 SSE 11 16 1023.2 - 0.0 - Partly cloudy 10 - - - -
26/10:00am 19.5 SE 12 17 1023.4 - 0.0 - Partly cloudy 10 - - - -
26/09:30am 19.5 SE 12 17 1023.2 - 0.0 - Partly cloudy 10 - - - -
26/09:00am 18.8 ESE 11 16 1023.3 - 0.0 - Partly cloudy 10 - - - -
26/08:30am 18.3 ESE 11 14 1023.0 - 0.0 - Partly cloudy 10 - - - -
26/08:00am 14.9 NE 2 5 1022.9 - 0.0 - Partly cloudy 10 - - - -
26/07:30am 12.6 E 5 5 1022.8 - 0.0 - Partly cloudy 10 - - - -
26/07:00am 11.6 ESE 6 6 1022.4 - 0.0 - - 10 - - - -
26/06:30am 11.9 E 6 7 1022.2 - 0.0 - Partly cloudy 10 - - - -
26/06:00am 13.3 E 6 7 1022.1 - 0.0 - Partly cloudy 10 - - - -
26/05:30am 13.4 E 6 8 1021.9 - 0.0 - Partly cloudy 10 - - - -
26/05:00am 13.2 E 7 9 1021.6 - 0.0 - Partly cloudy 10 - - - -
26/04:30am 13.4 E 7 9 1021.5 - 0.0 - Cloudy 10 - - - -
26/04:00am 14.1 ENE 7 9 1021.6 - 0.0 - Partly cloudy 10 - - - -
26/03:30am 15.2 SE 10 13 1021.6 - 0.0 - Partly cloudy 10 - - - -
26/03:00am 15.1 SE 10 12 1021.4 - 0.0 - Partly cloudy 10 - - - -
26/02:30am 15.3 SE 13 16 1021.2 - 0.0 - - 10 - - - -
26/02:00am 15.3 SE 13 15 1021.2 - 0.0 - - 10 - - - -
26/01:30am 15.1 SE 12 16 1021.6 - 0.0 - - 10 - - - -
26/01:00am 15.2 SE 13 16 1021.8 - 0.0 - - 10 - - - -
26/12:30am 15.3 SE 12 15 1022.2 - 0.0 - - 10 - - - -
26/12:00am 15.6 SE 13 17 1022.6 - 0.0 - - 10 - - - -
 
Date/Time
CDT
Temp

°C
Wind Pressure Rain
since 9am
mm
Weather Cloud Vis
km
Sea
Height
m
Swell
Dir
 
Speed
knots
Gust
knots
hPa Trend Height
m
Period
s
Dir
25/11:30pm 15.5 SE 12 15 1023.0 - 0.0 - - 10 - - - -
25/11:00pm 15.8 SE 13 16 1023.2 - 0.0 - - 10 - - - -
25/10:30pm 16.0 SE 12 16 1023.2 - 0.0 - - 10 - - - -
25/10:00pm 16.1 SE 13 17 1023.0 - 0.0 - - 10 - - - -
25/09:30pm 16.2 SSE 13 17 1022.6 - 0.0 - - 10 - - - -
25/09:00pm 16.3 SE 14 19 1022.4 - 0.0 - - 10 - - - -
25/08:30pm 16.8 SE 15 20 1022.2 - 0.0 - - 10 - - - -
25/08:00pm 17.5 SE 17 23 1022.2 - 0.0 - - 10 - - - -
25/07:30pm 18.4 SSE 17 21 1022.2 - 0.0 - - 10 - - - -
25/07:00pm 19.0 SSE 17 23 1021.9 - 0.0 - - 10 - - - -
25/06:30pm 19.4 SE 18 23 1021.7 - 0.0 - - 10 - - - -
25/06:00pm 20.1 SSE 16 22 1021.8 - 0.0 - - 10 - - - -
25/05:30pm 20.0 SSE 16 21 1021.8 - 0.0 - - 10 - - - -
25/05:00pm 21.1 SSE 15 19 1022.0 - 0.0 - - 10 - - - -
25/04:30pm 20.5 SSE 15 21 1022.2 - 0.0 - Partly cloudy 10 - - - -
25/04:00pm 21.1 SSE 14 22 1022.2 - 0.0 - - 10 - - - -
25/03:30pm 20.6 SSE 13 20 1022.5 - 0.0 - - 10 - - - -
25/03:00pm 21.9 SSE 12 20 1022.7 - 0.0 - Mostly clear 10 - - - -
25/02:30pm 21.5 SSE 11 15 1022.9 - 0.0 - - 10 - - - -
25/02:00pm 20.9 SSE 11 15 1023.2 - 0.0 - - 10 - - - -
25/01:30pm 21.3 SSE 10 17 1023.5 - 0.0 - - 10 - - - -
25/01:00pm 20.7 SE 13 17 1023.8 - 0.0 - - 10 - - - -
25/12:30pm 20.6 E 11 16 1023.9 - 0.0 - - 10 - - - -
25/12:00pm 20.6 ESE 11 18 1024.0 - 0.0 - Mostly clear 10 - - - -
25/11:30am 20.4 ESE 10 15 1024.1 - 0.0 - Partly cloudy 10 - - - -
25/11:00am 20.9 ESE 12 15 1024.2 - 0.0 - Partly cloudy 10 - - - -
25/10:30am 20.3 E 8 13 1024.2 - 0.0 - Cloudy 10 - - - -
25/10:00am 19.4 SE 11 15 1024.3 - 0.0 - Partly cloudy 10 - - - -
25/09:30am 18.9 E 10 14 1024.4 - 0.0 - Partly cloudy 10 - - - -
25/09:00am 17.4 E 8 11 1024.5 - 0.0 - Cloudy 10 - - - -
25/08:30am 15.4 ENE 7 9 1024.3 - 0.0 - Partly cloudy 10 - - - -
25/08:00am 15.5 NE 5 7 1024.1 - 0.0 - Partly cloudy 10 - - - -
25/07:30am 11.5 N 5 6 1023.9 - 0.0 - - 10 - - - -
25/07:00am 10.2 NNE 6 7 1023.7 - 0.0 - Partly cloudy 10 - - - -
25/06:30am 10.1 NE 7 9 1023.5 - 0.0 - Partly cloudy 10 - - - -
25/06:00am 11.1 ESE 5 6 1023.1 - 0.0 - - 10 - - - -
25/05:30am 11.2 SE 6 7 1022.8 - 0.0 - - 10 - - - -
25/05:00am 10.7 SE 7 8 1022.7 - 0.0 - - 10 - - - -
25/04:30am 11.4 SE 7 8 1022.6 - 0.0 - Partly cloudy 10 - - - -
25/04:00am 11.0 SE 7 8 1022.5 - 0.0 - Partly cloudy 10 - - - -
25/03:30am 11.5 SSE 7 7 1022.4 - 0.0 - - 10 - - - -
25/03:00am 12.5 S 7 8 1022.6 - 0.0 - - 10 - - - -
25/02:30am 13.8 S 7 9 1022.7 - 0.0 - - 10 - - - -
25/02:00am 15.1 SSE 9 12 1022.9 - 0.0 - Partly cloudy 10 - - - -
25/01:30am 16.4 SSE 10 14 1023.1 - 0.0 - Cloudy 10 - - - -
25/01:00am 16.0 SSE 8 10 1023.4 - 0.0 - Partly cloudy 10 - - - -
25/12:30am 16.3 S 9 11 1023.5 - 0.0 - Cloudy 10 - - - -
25/12:00am 15.9 S 8 10 1023.7 - 0.0 - Mostly cloudy 10 - - - -
 
Date/Time
CDT
Temp

°C
Wind Pressure Rain
since 9am
mm
Weather Cloud Vis
km
Sea
Height
m
Swell
Dir
 
Speed
knots
Gust
knots
hPa Trend Height
m
Period
s
Dir
24/11:30pm 16.4 SSE 8 11 1023.6 - 0.0 - Cloudy 10 - - - -
24/11:00pm 16.5 S 9 12 1023.5 - 0.0 - Partly cloudy 10 - - - -
24/10:30pm 16.7 SSE 11 14 1023.2 - 0.0 - Cloudy 10 - - - -
24/10:00pm 15.7 S 9 12 1023.0 - 0.0 - Partly cloudy 10 - - - -
24/09:30pm 16.4 S 10 13 1022.9 - 0.0 - Partly cloudy 10 - - - -
24/09:00pm 16.9 S 11 14 1022.5 - 0.0 - Mostly cloudy 10 - - - -
24/08:30pm 16.6 S 10 13 1022.2 - 0.0 - Partly cloudy 10 - - - -
24/08:00pm 17.2 S 12 17 1021.9 - 0.0 - Partly cloudy 10 - - - -
24/07:30pm 17.5 S 13 16 1021.6 - 0.0 - Partly cloudy 10 - - - -
24/07:00pm 18.7 S 14 18 1021.2 - 0.0 - Partly cloudy 10 - - - -
24/06:30pm 19.0 S 15 21 1020.9 - 0.0 - Partly cloudy 10 - - - -
24/06:00pm 19.7 SSW 15 21 1020.6 - 0.0 - Partly cloudy 10 - - - -
24/05:30pm 19.9 S 16 23 1020.5 - 0.0 - Partly cloudy 10 - - - -
24/05:00pm 19.6 S 15 20 1020.6 - 0.0 - Partly cloudy 10 - - - -
24/04:30pm 20.0 S 16 23 1020.5 - 0.0 - Partly cloudy 10 - - - -
24/04:00pm 20.1 S 15 21 1020.5 - 0.0 - Partly cloudy 10 - - - -
24/03:30pm 20.5 S 17 21 1020.5 - 0.0 - Partly cloudy 10 - - - -
24/03:00pm 21.2 S 13 17 1020.5 - 0.0 - Mostly clear 10 - - - -
24/02:30pm 20.5 S 14 22 1020.6 - 0.0 - Partly cloudy 10 - - - -
24/02:05pm 21.0 SSE 15 25 1020.7 - 0.0 - Partly cloudy 10 - - - -
24/02:00pm 20.0 SSW 14 20 1020.9 - 0.0 - Partly cloudy 10 - - - -
24/01:30pm 20.6 SSW 15 21 1021.0 - 0.0 - Partly cloudy 10 - - - -
24/01:00pm 20.4 S 15 22 1021.1 - 0.0 - Partly cloudy 10 - - - -
24/12:30pm 21.1 SSW 14 22 1021.0 - 0.0 - Partly cloudy 10 - - - -
24/12:00pm 19.9 S 14 22 1020.8 - 0.0 - Mostly cloudy 10 - - - -
24/11:30am 21.1 SSW 15 21 1020.7 - 0.0 - Partly cloudy 10 - - - -
24/11:00am 19.9 SSW 15 19 1020.4 - 0.0 - Partly cloudy 10 - - - -
24/10:30am 19.6 SSW 13 27 1020.2 - 0.0 - Partly cloudy 10 - - - -
24/10:00am 19.7 SSW 15 20 1020.1 - 0.0 - Partly cloudy 10 - - - -
24/09:30am 19.3 S 14 18 1019.7 - 0.0 - Partly cloudy 10 - - - -
24/09:00am 18.4 S 15 19 1019.4 - 0.0 - Partly cloudy 10 - - - -
24/08:30am 18.3 S 15 20 1018.8 - 0.0 - Partly cloudy 10 - - - -
24/08:00am 17.7 S 14 18 1018.5 - 0.0 - Partly cloudy 10 - - - -
24/07:30am 16.7 SSW 11 15 1018.1 - 0.0 - Partly cloudy 10 - - - -
24/07:00am 15.7 SSW 9 11 1017.6 - 0.0 - Partly cloudy 10 - - - -
24/06:30am 15.8 SSW 9 12 1017.3 - 0.0 - Partly cloudy 10 - - - -
24/06:00am 16.4 SSW 11 15 1016.9 - 0.0 - Partly cloudy 10 - - - -
24/05:30am 17.2 S 13 17 1016.7 - 0.0 - Partly cloudy 10 - - - -
24/05:00am 17.3 S 13 17 1016.4 - 0.0 - Cloudy 10 - - - -
24/04:30am 17.5 S 12 16 1016.3 - 0.0 - Cloudy 10 - - - -

Other Formats:

Comma delimited format used in spreadsheet applications
http://www.bom.gov.au/fwo/IDS60701/IDS60701.94651.axf

JavaScript Object Notation format (JSON) in row-major order
http://www.bom.gov.au/fwo/IDS60701/IDS60701.94651.json